logo
Search for airport 
image banner adimage banner adimage banner ad
image banner ad

CDB5 - Salisbury

Located in Moncton, Canada

ICAO - CDB5, IATA -

Data provided by Airmate  

General information

Coordinates: N46°2'58" W65°3'45"
Elevation is 230 feet MSL.
Magnetic variation is -17.8333° East
View others Airports in New Brunswick

Operational data

Special qualification required
Current time UTC:
Current local time:
METAR: CYQM 252000Z 04017G23KT 15SM FEW027 SCT036 BKN045 14/08 A3034 RMK CU2SC2SC2 SLP277
TAF: TAF CYQM 251740Z 2518/2618 04015G25KT P6SM SCT020 BKN050 TEMPO 2518/2523 P6SM -SHRA BKN020 BKN050 FM252300 02008KT P6SM BKN030 FM260200 02008KT P6SM SCT020 FM260400 36008KT P6SM FEW020 PROB30 2604/2611 2SM BR FM261200 30007KT P6SM SKC RMK NXT FCST BY 260000Z
View NOTAMs / SUP AIP / TFR affecting this airport [VIEW]
Communications frequencies: [VIEW]

Runways:

Airport contact information

Address: Moncton Canada

Satellite view of CDB5